createdAt,value
2023-03-15T00:00:24.608Z,22.90
2023-03-15T00:02:53.392Z,22.90
2023-03-15T00:05:22.679Z,22.90
2023-03-15T00:07:51.306Z,22.90
2023-03-15T00:10:19.964Z,22.90
2023-03-15T00:12:48.620Z,22.90
2023-03-15T00:15:17.302Z,23.00
2023-03-15T00:17:45.971Z,23.00
2023-03-15T00:20:15.997Z,23.00
2023-03-15T00:22:44.734Z,23.00
2023-03-15T00:25:13.540Z,23.10
2023-03-15T00:27:42.288Z,23.10
2023-03-15T00:30:11.814Z,23.20
2023-03-15T00:32:40.568Z,23.30
2023-03-15T00:35:12.129Z,23.30
2023-03-15T00:37:41.440Z,23.30
2023-03-15T00:40:11.096Z,23.40
2023-03-15T00:42:40.715Z,23.40
2023-03-15T00:45:09.954Z,23.50
2023-03-15T00:47:38.729Z,23.50
2023-03-15T00:50:07.662Z,23.60
2023-03-15T00:52:40.914Z,23.60
2023-03-15T00:55:14.940Z,23.70
2023-03-15T00:57:45.678Z,23.70
2023-03-15T01:00:25.216Z,23.70
2023-03-15T01:02:54.972Z,23.70
2023-03-15T01:05:23.899Z,23.80
2023-03-15T01:07:54.090Z,23.80
2023-03-15T01:10:22.763Z,23.80
2023-03-15T01:12:51.922Z,23.90
2023-03-15T01:15:20.716Z,24.00
2023-03-15T01:17:49.454Z,24.00
2023-03-15T01:20:18.306Z,24.10
2023-03-15T01:22:47.052Z,24.20
2023-03-15T01:25:18.889Z,24.20
2023-03-15T01:27:47.703Z,24.30
2023-03-15T01:30:16.514Z,24.40
2023-03-15T01:32:45.262Z,24.40
2023-03-15T01:35:14.148Z,24.40
2023-03-15T01:37:42.877Z,24.50
2023-03-15T01:40:15.054Z,24.60
2023-03-15T01:43:07.218Z,24.70
2023-03-15T01:46:15.277Z,24.80
2023-03-15T01:48:49.947Z,24.80
2023-03-15T01:51:19.507Z,24.90
2023-03-15T01:53:54.889Z,25.00
2023-03-15T01:56:24.869Z,25.10
2023-03-15T01:58:55.050Z,25.20
2023-03-15T02:01:23.989Z,25.30
2023-03-15T02:03:58.668Z,25.30
2023-03-15T02:06:27.932Z,25.40
2023-03-15T02:09:05.053Z,25.50
2023-03-15T02:11:36.054Z,25.60
2023-03-15T02:14:06.424Z,25.70
2023-03-15T02:16:35.788Z,25.80
2023-03-15T02:19:05.880Z,25.90
2023-03-15T02:22:08.659Z,25.90
2023-03-15T02:24:57.302Z,26.00
2023-03-15T02:27:35.494Z,26.10
2023-03-15T02:30:06.575Z,26.20
2023-03-15T02:32:36.241Z,26.20
2023-03-15T02:35:05.350Z,26.30
2023-03-15T02:37:34.182Z,26.40
2023-03-15T02:40:03.042Z,26.50
2023-03-15T02:42:32.450Z,26.60
2023-03-15T02:45:01.446Z,26.70
2023-03-15T02:47:34.787Z,26.80
2023-03-15T02:50:03.579Z,26.90
2023-03-15T02:52:32.234Z,27.00
2023-03-15T02:55:00.889Z,27.00
2023-03-15T02:57:33.188Z,27.10
2023-03-15T03:00:07.980Z,27.10
2023-03-15T03:02:36.818Z,27.20
2023-03-15T03:05:07.074Z,27.20
2023-03-15T03:07:36.645Z,27.30
2023-03-15T03:10:07.311Z,27.40
2023-03-15T03:12:36.235Z,27.50
2023-03-15T03:15:23.769Z,27.50
2023-03-15T03:17:52.472Z,27.60
2023-03-15T03:20:21.235Z,27.60
2023-03-15T03:22:50.542Z,27.70
2023-03-15T03:25:22.304Z,27.70
2023-03-15T03:27:51.639Z,27.80
2023-03-15T03:30:20.356Z,27.90
2023-03-15T03:32:49.033Z,28.00
2023-03-15T03:35:17.984Z,28.10
2023-03-15T03:37:46.985Z,28.30
2023-03-15T03:40:15.777Z,28.40
2023-03-15T03:42:44.755Z,28.50
2023-03-15T03:45:13.839Z,28.60
2023-03-15T03:47:42.818Z,28.60
2023-03-15T03:50:15.609Z,28.70
2023-03-15T03:52:46.326Z,28.70
2023-03-15T03:55:15.097Z,28.80
2023-03-15T03:57:45.016Z,28.90
2023-03-15T04:00:15.881Z,28.90
2023-03-15T04:02:44.809Z,29.00
2023-03-15T04:05:14.258Z,29.00
2023-03-15T04:07:43.005Z,29.00
2023-03-15T04:10:15.731Z,29.00
2023-03-15T04:12:44.624Z,29.10
2023-03-15T04:15:13.918Z,29.20
2023-03-15T04:17:42.649Z,29.10
2023-03-15T04:20:13.825Z,29.10
2023-03-15T04:22:42.537Z,29.20
2023-03-15T04:25:11.384Z,29.20
2023-03-15T04:27:40.105Z,29.30
2023-03-15T04:30:09.570Z,29.30
2023-03-15T04:32:38.474Z,29.30
2023-03-15T04:35:07.508Z,29.30
2023-03-15T04:37:36.220Z,29.30
2023-03-15T04:40:06.028Z,29.30
2023-03-15T04:42:35.288Z,29.30
2023-03-15T04:45:05.244Z,29.30
2023-03-15T04:47:33.981Z,29.40
2023-03-15T04:50:02.718Z,29.40
2023-03-15T04:52:31.566Z,29.40
2023-03-15T04:55:00.285Z,29.50
2023-03-15T04:57:29.003Z,29.50
2023-03-15T04:59:58.303Z,29.50
2023-03-15T05:02:27.114Z,29.50
2023-03-15T05:04:57.951Z,29.50
2023-03-15T05:07:26.984Z,29.40
2023-03-15T05:09:55.774Z,29.40
2023-03-15T05:12:25.474Z,29.60
2023-03-15T05:14:54.434Z,29.60
2023-03-15T05:17:23.563Z,29.70
2023-03-15T05:19:52.855Z,29.80
2023-03-15T05:22:26.845Z,29.80
2023-03-15T05:24:55.554Z,29.80
2023-03-15T05:27:24.972Z,29.80
2023-03-15T05:29:53.744Z,29.90
2023-03-15T05:32:28.052Z,29.90
2023-03-15T05:34:56.896Z,30.00
2023-03-15T05:37:26.076Z,30.00
2023-03-15T05:39:55.166Z,30.00
2023-03-15T05:42:27.121Z,30.10
2023-03-15T05:44:56.906Z,30.10
2023-03-15T05:47:25.747Z,30.10
2023-03-15T05:49:54.747Z,30.10
2023-03-15T05:52:23.617Z,30.20
2023-03-15T05:54:52.310Z,30.20
2023-03-15T05:57:21.240Z,30.20
2023-03-15T05:59:50.350Z,30.20
2023-03-15T06:02:19.172Z,30.20
2023-03-15T06:04:48.699Z,30.20
2023-03-15T06:07:18.294Z,30.30
2023-03-15T06:09:47.262Z,30.30
2023-03-15T06:12:16.650Z,30.30
2023-03-15T06:14:45.373Z,30.30
2023-03-15T06:17:14.503Z,30.40
2023-03-15T06:19:43.358Z,30.40
2023-03-15T06:22:12.267Z,30.50
2023-03-15T06:24:41.237Z,30.60
2023-03-15T06:27:10.396Z,30.60
2023-03-15T06:29:39.167Z,30.60
2023-03-15T06:32:08.124Z,30.70
2023-03-15T06:34:36.984Z,30.60
2023-03-15T06:37:05.895Z,30.70
2023-03-15T06:39:35.442Z,30.70
2023-03-15T06:42:05.996Z,30.80
2023-03-15T06:44:35.272Z,30.90
2023-03-15T06:47:04.033Z,30.90
2023-03-15T06:49:33.794Z,31.00
2023-03-15T06:52:02.570Z,31.10
2023-03-15T06:54:31.754Z,31.10
2023-03-15T06:57:00.916Z,31.10
2023-03-15T06:59:29.934Z,31.00
2023-03-15T07:02:04.740Z,31.00
2023-03-15T07:04:33.591Z,31.00
2023-03-15T07:07:02.444Z,30.90
2023-03-15T07:09:31.116Z,30.90
2023-03-15T07:11:59.923Z,30.90
2023-03-15T07:14:28.608Z,30.90
2023-03-15T07:16:57.314Z,30.90
2023-03-15T07:19:26.043Z,30.90
2023-03-15T07:21:54.700Z,30.90
2023-03-15T07:24:23.568Z,30.90
2023-03-15T07:26:57.240Z,31.00
2023-03-15T07:29:28.778Z,31.00
2023-03-15T07:31:57.503Z,31.00
2023-03-15T07:34:29.160Z,31.00
2023-03-15T07:36:58.046Z,31.00
2023-03-15T07:39:27.897Z,31.10
2023-03-15T07:41:56.994Z,31.10
2023-03-15T07:44:25.788Z,31.10
2023-03-15T07:46:56.014Z,31.10
2023-03-15T07:49:24.899Z,31.10
2023-03-15T07:51:53.690Z,31.10
2023-03-15T07:54:22.459Z,31.20
2023-03-15T07:56:51.214Z,31.20
2023-03-15T07:59:19.897Z,31.20
2023-03-15T08:01:49.368Z,31.30
2023-03-15T08:04:18.131Z,31.20
2023-03-15T08:06:46.886Z,31.30
2023-03-15T08:09:15.643Z,31.40
2023-03-15T08:11:45.323Z,31.40
2023-03-15T08:14:14.539Z,31.40
2023-03-15T08:16:43.262Z,31.40
2023-03-15T08:19:12.168Z,31.40
2023-03-15T08:21:46.238Z,31.40
2023-03-15T08:24:15.257Z,31.30
2023-03-15T08:26:44.618Z,31.30
2023-03-15T08:29:13.402Z,31.20
2023-03-15T08:31:42.827Z,31.20
2023-03-15T08:34:13.172Z,31.20
2023-03-15T08:36:42.941Z,31.20
2023-03-15T08:39:12.522Z,31.20
2023-03-15T08:41:41.929Z,31.20
2023-03-15T08:44:11.098Z,31.10
2023-03-15T08:46:39.904Z,31.10
2023-03-15T08:52:09.113Z,31.20
2023-03-15T08:54:37.943Z,31.20
2023-03-15T08:57:29.742Z,31.20
2023-03-15T09:00:11.543Z,31.20
2023-03-15T09:02:49.508Z,31.20
2023-03-15T09:05:22.697Z,31.20
2023-03-15T09:07:54.885Z,31.20
2023-03-15T09:10:27.284Z,31.20
2023-03-15T09:12:56.693Z,31.20
2023-03-15T09:15:31.669Z,31.20
2023-03-15T09:18:00.473Z,31.20
2023-03-15T09:20:29.628Z,31.30
2023-03-15T09:22:59.749Z,31.30
2023-03-15T09:25:28.755Z,31.30
2023-03-15T09:27:57.491Z,31.30
2023-03-15T09:30:26.442Z,31.40
2023-03-15T09:32:55.272Z,31.40
2023-03-15T09:35:24.438Z,31.30
2023-03-15T09:37:53.399Z,31.30
2023-03-15T09:40:29.560Z,31.20
2023-03-15T09:42:59.264Z,31.20
2023-03-15T09:45:33.448Z,31.20
2023-03-15T09:48:06.551Z,31.10
2023-03-15T09:50:58.394Z,31.10
2023-03-15T09:53:31.256Z,31.10
2023-03-15T09:56:00.863Z,31.10
2023-03-15T09:58:35.923Z,31.10
2023-03-15T10:01:14.127Z,31.10
2023-03-15T10:03:55.015Z,31.00
2023-03-15T10:06:30.596Z,31.00
2023-03-15T10:09:01.695Z,31.00
2023-03-15T10:11:58.409Z,30.90
2023-03-15T10:14:29.183Z,30.90
2023-03-15T10:16:58.009Z,30.90
2023-03-15T10:19:45.569Z,30.80
2023-03-15T10:22:16.152Z,30.80
2023-03-15T10:25:02.368Z,30.80
2023-03-15T10:27:50.795Z,30.80
2023-03-15T10:30:22.446Z,30.70
2023-03-15T10:33:14.581Z,30.70
2023-03-15T10:35:43.856Z,30.70
2023-03-15T10:38:17.556Z,30.60
2023-03-15T10:40:50.113Z,30.70
2023-03-15T10:43:38.238Z,30.60
2023-03-15T10:46:08.053Z,30.50
2023-03-15T10:48:39.195Z,30.60
2023-03-15T10:51:30.230Z,30.50
2023-03-15T10:54:09.702Z,30.40
2023-03-15T10:56:47.962Z,30.40
2023-03-15T10:59:21.479Z,30.40
2023-03-15T11:01:53.201Z,30.40
2023-03-15T11:04:24.513Z,30.30
2023-03-15T11:07:10.289Z,30.30
2023-03-15T11:09:46.612Z,30.20
2023-03-15T11:12:25.209Z,30.20
2023-03-15T11:14:59.292Z,30.20
2023-03-15T11:17:33.808Z,30.10
2023-03-15T11:20:14.498Z,30.10
2023-03-15T11:22:43.435Z,30.00
2023-03-15T11:25:19.697Z,30.00
2023-03-15T11:27:54.524Z,30.00
2023-03-15T11:30:29.858Z,29.90
2023-03-15T11:33:06.959Z,29.90
2023-03-15T11:35:42.087Z,29.80
2023-03-15T11:38:16.004Z,29.80
2023-03-15T11:40:49.060Z,29.70
2023-03-15T11:43:43.600Z,29.60
2023-03-15T11:46:23.357Z,29.60
2023-03-15T11:48:59.174Z,29.50
2023-03-15T11:51:28.479Z,29.40
2023-03-15T11:54:18.257Z,29.30
2023-03-15T11:56:49.315Z,29.30
2023-03-15T11:59:19.037Z,29.20
2023-03-15T12:01:51.179Z,29.10
2023-03-15T12:04:28.317Z,29.00
2023-03-15T12:06:58.768Z,29.00
2023-03-15T12:09:37.351Z,28.90
2023-03-15T12:12:26.175Z,28.90
2023-03-15T12:15:16.082Z,28.90
2023-03-15T12:17:46.545Z,28.90
2023-03-15T12:20:22.841Z,28.90
2023-03-15T12:23:08.834Z,28.90
2023-03-15T12:25:54.698Z,28.90
2023-03-15T12:28:31.444Z,28.90
2023-03-15T12:31:03.188Z,28.90
2023-03-15T12:33:34.172Z,28.90
2023-03-15T12:36:09.569Z,28.80
2023-03-15T12:38:42.782Z,28.80
2023-03-15T12:41:40.210Z,28.80
2023-03-15T12:44:39.349Z,28.80
2023-03-15T12:47:10.290Z,28.70
2023-03-15T12:49:43.670Z,28.70
2023-03-15T12:52:15.265Z,28.60
2023-03-15T12:55:19.546Z,28.60
2023-03-15T12:57:55.071Z,28.60
2023-03-15T13:00:26.921Z,28.50
2023-03-15T13:03:06.487Z,28.50
2023-03-15T13:06:14.562Z,28.50
2023-03-15T13:09:05.486Z,28.50
2023-03-15T13:11:55.238Z,28.40
2023-03-15T13:14:34.201Z,28.40
2023-03-15T13:17:18.422Z,28.30
2023-03-15T13:19:51.000Z,28.30
2023-03-15T13:22:37.413Z,28.20
2023-03-15T13:25:22.491Z,28.20
2023-03-15T13:27:52.146Z,28.10
2023-03-15T13:30:39.007Z,28.10
2023-03-15T13:33:12.110Z,28.10
2023-03-15T13:35:51.258Z,28.00
2023-03-15T13:38:27.900Z,28.00
2023-03-15T13:40:58.529Z,27.90
2023-03-15T13:43:31.844Z,27.90
2023-03-15T13:46:01.858Z,27.90
2023-03-15T13:48:32.772Z,27.90
2023-03-15T13:51:09.031Z,27.90
2023-03-15T13:53:49.526Z,27.90
2023-03-15T13:56:29.468Z,27.90
2023-03-15T13:58:59.622Z,27.90
2023-03-15T14:01:28.689Z,27.90
2023-03-15T14:04:04.205Z,27.90
2023-03-15T14:06:33.876Z,27.90
2023-03-15T14:09:13.137Z,27.90
2023-03-15T14:11:42.222Z,27.90
2023-03-15T14:14:25.797Z,27.90
2023-03-15T14:17:04.713Z,27.90
2023-03-15T14:19:37.846Z,27.90
2023-03-15T14:22:16.803Z,27.80
2023-03-15T14:24:48.515Z,27.80
2023-03-15T14:27:23.379Z,27.80
2023-03-15T14:30:02.694Z,27.80
2023-03-15T14:32:34.529Z,27.80
2023-03-15T14:35:08.954Z,27.70
2023-03-15T14:37:41.720Z,27.60
2023-03-15T14:40:15.238Z,27.60
2023-03-15T14:42:46.009Z,27.50
2023-03-15T14:45:16.063Z,27.50
2023-03-15T14:47:56.769Z,27.40
2023-03-15T14:50:28.833Z,27.40
2023-03-15T14:53:00.005Z,27.40
2023-03-15T14:55:34.483Z,27.30
2023-03-15T14:58:04.984Z,27.30
2023-03-15T15:00:35.469Z,27.30
2023-03-15T15:03:04.834Z,27.30
2023-03-15T15:05:39.045Z,27.20
2023-03-15T15:08:15.199Z,27.20
2023-03-15T15:10:48.146Z,27.20
2023-03-15T15:13:19.795Z,27.20
2023-03-15T15:15:55.579Z,27.20
2023-03-15T15:18:26.908Z,27.20
2023-03-15T15:20:58.408Z,27.20
2023-03-15T15:23:32.559Z,27.10
2023-03-15T15:26:06.228Z,27.10
2023-03-15T15:28:37.395Z,27.00
2023-03-15T15:31:08.287Z,26.90
2023-03-15T15:33:37.341Z,26.90
2023-03-15T15:36:11.630Z,26.90
2023-03-15T15:38:41.218Z,26.90
2023-03-15T15:41:17.165Z,26.90
2023-03-15T15:43:46.056Z,26.90
2023-03-15T15:46:14.975Z,26.90
2023-03-15T15:48:43.803Z,26.90
2023-03-15T15:51:33.349Z,26.90
2023-03-15T15:54:03.290Z,26.90
2023-03-15T15:56:38.113Z,26.90
2023-03-15T15:59:09.685Z,26.90
2023-03-15T16:01:56.782Z,26.90
2023-03-15T16:04:28.646Z,26.90
2023-03-15T16:07:02.649Z,26.90
2023-03-15T16:09:36.193Z,26.80
2023-03-15T16:12:12.278Z,26.80
2023-03-15T16:14:41.246Z,26.80
2023-03-15T16:17:17.748Z,26.80
2023-03-15T16:19:46.664Z,26.70
2023-03-15T16:22:15.828Z,26.70
2023-03-15T16:24:46.463Z,26.70
2023-03-15T16:27:17.125Z,26.70
2023-03-15T16:29:49.157Z,26.70
2023-03-15T16:32:32.884Z,26.70
2023-03-15T16:35:07.799Z,26.70
2023-03-15T16:37:36.927Z,26.60
2023-03-15T16:40:11.653Z,26.70
2023-03-15T16:42:40.351Z,26.60
2023-03-15T16:45:15.230Z,26.60
2023-03-15T16:47:44.023Z,26.60
2023-03-15T16:50:13.176Z,26.60
2023-03-15T16:52:43.870Z,26.60
2023-03-15T16:55:18.002Z,26.50
2023-03-15T16:57:46.913Z,26.50
2023-03-15T17:03:43.874Z,26.50
2023-03-15T17:06:21.052Z,26.50
2023-03-15T17:08:50.421Z,26.50
2023-03-15T17:11:20.032Z,26.40
2023-03-15T17:13:48.761Z,26.40
2023-03-15T17:16:17.736Z,26.40
2023-03-15T17:18:48.592Z,26.50
2023-03-15T17:21:21.029Z,26.50
2023-03-15T17:23:51.250Z,26.40
2023-03-15T17:26:23.429Z,26.40
2023-03-15T17:28:52.402Z,26.40
2023-03-15T17:31:26.657Z,26.50
2023-03-15T17:33:55.545Z,26.40
2023-03-15T17:36:26.538Z,26.30
2023-03-15T17:38:55.889Z,26.30
2023-03-15T17:41:35.068Z,26.30
2023-03-15T17:44:03.910Z,26.30
2023-03-15T17:46:34.109Z,26.30
2023-03-15T17:49:03.904Z,26.20
2023-03-15T17:51:35.280Z,26.20
2023-03-15T17:54:12.002Z,26.20
2023-03-15T17:56:40.705Z,26.20
2023-03-15T17:59:13.449Z,26.20
2023-03-15T18:01:46.632Z,26.20
2023-03-15T18:04:16.100Z,26.10
2023-03-15T18:06:45.001Z,26.10
2023-03-15T18:09:16.293Z,26.10
2023-03-15T18:11:47.033Z,26.00
2023-03-15T18:14:17.378Z,26.00
2023-03-15T18:16:46.938Z,26.00
2023-03-15T18:19:15.773Z,26.00
2023-03-15T18:34:16.657Z,25.80
2023-03-15T18:36:45.352Z,25.80
2023-03-15T18:39:14.117Z,25.80
2023-03-15T18:41:42.863Z,25.80
2023-03-15T18:44:12.384Z,25.70
2023-03-15T18:46:41.151Z,25.70
2023-03-15T18:49:09.951Z,25.70
2023-03-15T18:51:38.686Z,25.70
2023-03-15T18:54:07.399Z,25.70
2023-03-15T18:56:36.752Z,25.70
2023-03-15T18:59:05.936Z,25.70
2023-03-15T19:01:35.269Z,25.70
2023-03-15T19:04:04.587Z,25.60
2023-03-15T19:06:33.297Z,25.60
2023-03-15T19:09:02.106Z,25.60
2023-03-15T19:11:32.590Z,25.60
2023-03-15T19:14:01.470Z,25.50
2023-03-15T19:16:31.786Z,25.50
2023-03-15T19:19:00.518Z,25.50
2023-03-15T19:21:29.156Z,25.50
2023-03-15T19:23:58.337Z,25.50
2023-03-15T19:26:27.444Z,25.50
2023-03-15T19:28:57.270Z,25.50
2023-03-15T19:31:25.991Z,25.50
2023-03-15T19:33:54.695Z,25.50
2023-03-15T19:36:23.823Z,25.50
2023-03-15T19:38:52.706Z,25.50
2023-03-15T19:41:21.401Z,25.40
2023-03-15T19:43:50.237Z,25.40
2023-03-15T19:46:19.054Z,25.40
2023-03-15T19:48:47.866Z,25.40
2023-03-15T19:51:17.454Z,25.40
2023-03-15T19:53:46.197Z,25.40
2023-03-15T19:56:15.021Z,25.40
2023-03-15T19:58:43.709Z,25.30
2023-03-15T20:01:12.517Z,25.40
2023-03-15T20:03:41.246Z,25.30
2023-03-15T20:06:13.413Z,25.30
2023-03-15T20:08:43.166Z,25.30
2023-03-15T20:11:15.887Z,25.30
2023-03-15T20:13:44.900Z,25.30
2023-03-15T20:16:13.926Z,25.20
2023-03-15T20:18:42.710Z,25.20
2023-03-15T20:21:11.982Z,25.20
2023-03-15T20:23:40.647Z,25.20
2023-03-15T20:26:12.471Z,25.20
2023-03-15T20:28:42.694Z,25.20
2023-03-15T20:31:15.010Z,25.20
2023-03-15T20:33:44.843Z,25.10
2023-03-15T20:36:13.582Z,25.10
2023-03-15T20:38:42.237Z,25.10
2023-03-15T20:41:11.018Z,25.10
2023-03-15T20:43:39.631Z,25.10
2023-03-15T20:46:10.674Z,25.00
2023-03-15T20:48:39.357Z,25.00
2023-03-15T20:51:08.144Z,25.00
2023-03-15T20:53:37.657Z,25.00
2023-03-15T20:56:07.627Z,25.00
2023-03-15T20:58:36.277Z,25.00
2023-03-15T21:01:08.322Z,24.90
2023-03-15T21:03:38.042Z,24.90
2023-03-15T21:06:07.695Z,24.90
2023-03-15T21:08:37.149Z,24.90
2023-03-15T21:11:07.550Z,24.80
2023-03-15T21:13:36.831Z,24.80
2023-03-15T21:16:06.027Z,24.70
2023-03-15T21:18:36.966Z,24.70
2023-03-15T21:21:08.369Z,24.60
2023-03-15T21:23:37.719Z,24.60
2023-03-15T21:26:08.590Z,24.60
2023-03-15T21:28:37.521Z,24.60
2023-03-15T21:31:07.478Z,24.60
2023-03-15T21:33:36.662Z,24.60
2023-03-15T21:36:06.178Z,24.60
2023-03-15T21:38:35.844Z,24.60
2023-03-15T21:41:09.990Z,24.60
2023-03-15T21:43:39.284Z,24.60
2023-03-15T21:46:12.723Z,24.50
2023-03-15T21:48:42.985Z,24.50
2023-03-15T21:51:14.914Z,24.50
2023-03-15T21:53:44.622Z,24.50
2023-03-15T21:56:15.102Z,24.40
2023-03-15T21:58:43.855Z,24.40
2023-03-15T22:01:15.698Z,24.40
2023-03-15T22:03:45.228Z,24.40
2023-03-15T22:06:14.017Z,24.40
2023-03-15T22:08:43.433Z,24.40
2023-03-15T22:11:12.169Z,24.40
2023-03-15T22:13:42.644Z,24.40
2023-03-15T22:16:12.715Z,24.40
2023-03-15T22:18:41.832Z,24.40
2023-03-15T22:21:10.561Z,24.40
2023-03-15T22:23:39.268Z,24.40
2023-03-15T22:26:08.193Z,24.40
2023-03-15T22:28:36.843Z,24.40
2023-03-15T22:31:05.604Z,24.40
2023-03-15T22:33:34.232Z,24.40
2023-03-15T22:36:04.224Z,24.30
2023-03-15T22:38:38.768Z,24.30
2023-03-15T22:41:11.210Z,24.30
2023-03-15T22:43:40.714Z,24.30
2023-03-15T22:46:09.670Z,24.20
2023-03-15T22:48:38.828Z,24.20
2023-03-15T22:51:10.964Z,24.20
2023-03-15T22:53:39.668Z,24.20
2023-03-15T22:56:09.219Z,24.20
2023-03-15T22:58:38.868Z,24.30
2023-03-15T23:01:07.804Z,24.30
2023-03-15T23:03:36.642Z,24.30
2023-03-15T23:06:06.675Z,24.30
2023-03-15T23:08:35.316Z,24.40
2023-03-15T23:11:04.862Z,24.40
2023-03-15T23:13:33.496Z,24.40
2023-03-15T23:16:05.166Z,24.40
2023-03-15T23:18:35.123Z,24.40
2023-03-15T23:21:09.190Z,24.40
2023-03-15T23:23:39.687Z,24.30
2023-03-15T23:26:08.817Z,24.30
2023-03-15T23:28:37.717Z,24.20
2023-03-15T23:31:08.225Z,24.20
2023-03-15T23:33:37.493Z,24.30
2023-03-15T23:36:08.088Z,24.30
2023-03-15T23:38:36.767Z,24.30
2023-03-15T23:41:05.960Z,24.30
2023-03-15T23:43:35.097Z,24.20
2023-03-15T23:46:05.765Z,24.30
2023-03-15T23:48:38.106Z,24.30
2023-03-15T23:51:06.943Z,24.30
2023-03-15T23:53:36.167Z,24.30
2023-03-15T23:56:04.937Z,24.30
2023-03-15T23:58:33.630Z,24.30
